sensor_id;sensor_type;location;lat;lon;timestamp;temperature;humidity
6788;DHT22;3431;47.966;10.268;2023-07-09T00:00:12;19.20;99.90
6788;DHT22;3431;47.966;10.268;2023-07-09T00:00:35;19.20;99.90
6788;DHT22;3431;47.966;10.268;2023-07-09T00:00:56;19.20;99.90
6788;DHT22;3431;47.966;10.268;2023-07-09T00:01:19;19.20;99.90
6788;DHT22;3431;47.966;10.268;2023-07-09T00:01:40;19.20;99.90
6788;DHT22;3431;47.966;10.268;2023-07-09T00:02:02;18.40;99.90
6788;DHT22;3431;47.966;10.268;2023-07-09T00:02:25;19.20;99.90
6788;DHT22;3431;47.966;10.268;2023-07-09T00:02:48;19.20;99.90
6788;DHT22;3431;47.966;10.268;2023-07-09T00:03:11;19.20;99.90
6788;DHT22;3431;47.966;10.268;2023-07-09T00:03:33;19.20;99.90
6788;DHT22;3431;47.966;10.268;2023-07-09T00:03:54;19.20;99.90
6788;DHT22;3431;47.966;10.268;2023-07-09T00:04:17;19.20;99.90
6788;DHT22;3431;47.966;10.268;2023-07-09T00:04:40;19.20;99.90
6788;DHT22;3431;47.966;10.268;2023-07-09T00:05:02;19.20;99.90
6788;DHT22;3431;47.966;10.268;2023-07-09T00:05:23;19.20;99.90
6788;DHT22;3431;47.966;10.268;2023-07-09T00:05:47;19.20;99.90
6788;DHT22;3431;47.966;10.268;2023-07-09T00:06:09;19.20;99.90
6788;DHT22;3431;47.966;10.268;2023-07-09T00:06:31;19.20;99.90
6788;DHT22;3431;47.966;10.268;2023-07-09T00:06:53;19.20;99.90
6788;DHT22;3431;47.966;10.268;2023-07-09T00:07:21;19.20;99.90
6788;DHT22;3431;47.966;10.268;2023-07-09T00:07:44;19.20;99.90
6788;DHT22;3431;47.966;10.268;2023-07-09T00:08:21;19.10;99.90
6788;DHT22;3431;47.966;10.268;2023-07-09T00:08:46;19.20;99.90
6788;DHT22;3431;47.966;10.268;2023-07-09T00:09:13;19.10;99.90
6788;DHT22;3431;47.966;10.268;2023-07-09T00:09:35;19.10;99.90
6788;DHT22;3431;47.966;10.268;2023-07-09T00:09:57;19.10;99.90
6788;DHT22;3431;47.966;10.268;2023-07-09T00:10:20;19.10;99.90
6788;DHT22;3431;47.966;10.268;2023-07-09T00:10:42;19.10;99.90
6788;DHT22;3431;47.966;10.268;2023-07-09T00:11:03;19.10;99.90
6788;DHT22;3431;47.966;10.268;2023-07-09T00:11:25;19.10;99.90
6788;DHT22;3431;47.966;10.268;2023-07-09T00:11:46;19.10;99.90
6788;DHT22;3431;47.966;10.268;2023-07-09T00:12:12;19.00;99.90
6788;DHT22;3431;47.966;10.268;2023-07-09T00:12:34;19.10;99.90
6788;DHT22;3431;47.966;10.268;2023-07-09T00:12:56;19.10;99.90
6788;DHT22;3431;47.966;10.268;2023-07-09T00:13:18;19.10;99.90
6788;DHT22;3431;47.966;10.268;2023-07-09T00:13:39;19.10;99.90
6788;DHT22;3431;47.966;10.268;2023-07-09T00:14:01;19.10;99.90
6788;DHT22;3431;47.966;10.268;2023-07-09T00:14:22;19.10;99.90
6788;DHT22;3431;47.966;10.268;2023-07-09T00:14:44;19.10;99.90
6788;DHT22;3431;47.966;10.268;2023-07-09T00:15:09;19.10;99.90
6788;DHT22;3431;47.966;10.268;2023-07-09T00:15:31;19.10;99.90
6788;DHT22;3431;47.966;10.268;2023-07-09T00:15:56;19.10;99.90
6788;DHT22;3431;47.966;10.268;2023-07-09T00:16:21;19.10;99.90
6788;DHT22;3431;47.966;10.268;2023-07-09T00:16:45;19.10;99.90
6788;DHT22;3431;47.966;10.268;2023-07-09T00:17:10;19.10;99.90
6788;DHT22;3431;47.966;10.268;2023-07-09T00:17:33;19.10;99.90
6788;DHT22;3431;47.966;10.268;2023-07-09T00:17:54;19.00;99.90
6788;DHT22;3431;47.966;10.268;2023-07-09T00:18:16;19.00;99.90
6788;DHT22;3431;47.966;10.268;2023-07-09T00:18:37;19.00;99.90
6788;DHT22;3431;47.966;10.268;2023-07-09T00:19:00;19.00;99.90
6788;DHT22;3431;47.966;10.268;2023-07-09T00:19:24;19.00;99.90
6788;DHT22;3431;47.966;10.268;2023-07-09T00:19:46;19.00;99.90
6788;DHT22;3431;47.966;10.268;2023-07-09T00:20:12;19.00;99.90
6788;DHT22;3431;47.966;10.268;2023-07-09T00:20:35;19.00;99.90
6788;DHT22;3431;47.966;10.268;2023-07-09T00:20:56;19.00;99.90
6788;DHT22;3431;47.966;10.268;2023-07-09T00:21:21;19.00;99.90
6788;DHT22;3431;47.966;10.268;2023-07-09T00:21:44;19.00;99.90
6788;DHT22;3431;47.966;10.268;2023-07-09T00:22:14;19.00;99.90
6788;DHT22;3431;47.966;10.268;2023-07-09T00:22:39;19.00;99.90
6788;DHT22;3431;47.966;10.268;2023-07-09T00:23:01;19.00;99.90
6788;DHT22;3431;47.966;10.268;2023-07-09T00:23:25;18.90;99.90
6788;DHT22;3431;47.966;10.268;2023-07-09T00:23:48;18.90;99.90
6788;DHT22;3431;47.966;10.268;2023-07-09T00:24:10;18.90;99.90
6788;DHT22;3431;47.966;10.268;2023-07-09T00:24:31;18.90;99.90
6788;DHT22;3431;47.966;10.268;2023-07-09T00:24:53;18.90;99.90
6788;DHT22;3431;47.966;10.268;2023-07-09T00:25:19;18.90;99.90
6788;DHT22;3431;47.966;10.268;2023-07-09T00:25:42;18.90;99.90
6788;DHT22;3431;47.966;10.268;2023-07-09T00:26:08;18.90;99.90
6788;DHT22;3431;47.966;10.268;2023-07-09T00:26:31;18.90;99.90
6788;DHT22;3431;47.966;10.268;2023-07-09T00:26:53;18.90;99.90
6788;DHT22;3431;47.966;10.268;2023-07-09T00:27:18;18.80;99.90
6788;DHT22;3431;47.966;10.268;2023-07-09T00:27:40;18.80;99.90
6788;DHT22;3431;47.966;10.268;2023-07-09T00:28:02;18.80;99.90
6788;DHT22;3431;47.966;10.268;2023-07-09T00:28:24;18.80;99.90
6788;DHT22;3431;47.966;10.268;2023-07-09T00:28:46;18.80;99.90
6788;DHT22;3431;47.966;10.268;2023-07-09T00:29:09;18.80;99.90
6788;DHT22;3431;47.966;10.268;2023-07-09T00:29:31;18.80;99.90
6788;DHT22;3431;47.966;10.268;2023-07-09T00:29:52;18.80;99.90
6788;DHT22;3431;47.966;10.268;2023-07-09T00:30:16;18.80;99.90
6788;DHT22;3431;47.966;10.268;2023-07-09T00:30:39;18.80;99.90
6788;DHT22;3431;47.966;10.268;2023-07-09T00:31:00;18.80;99.90
6788;DHT22;3431;47.966;10.268;2023-07-09T00:31:22;18.80;99.90
6788;DHT22;3431;47.966;10.268;2023-07-09T00:31:44;18.80;99.90
6788;DHT22;3431;47.966;10.268;2023-07-09T00:32:11;18.80;99.90
6788;DHT22;3431;47.966;10.268;2023-07-09T00:32:36;18.70;99.90
6788;DHT22;3431;47.966;10.268;2023-07-09T00:33:04;18.70;99.90
6788;DHT22;3431;47.966;10.268;2023-07-09T00:33:25;18.70;99.90
6788;DHT22;3431;47.966;10.268;2023-07-09T00:33:53;18.70;99.90
6788;DHT22;3431;47.966;10.268;2023-07-09T00:34:17;18.70;99.90
6788;DHT22;3431;47.966;10.268;2023-07-09T00:34:38;18.70;99.90
6788;DHT22;3431;47.966;10.268;2023-07-09T00:35:00;18.70;99.90
6788;DHT22;3431;47.966;10.268;2023-07-09T00:35:25;18.70;99.90
6788;DHT22;3431;47.966;10.268;2023-07-09T00:35:48;18.70;99.90
6788;DHT22;3431;47.966;10.268;2023-07-09T00:36:15;18.70;99.90
6788;DHT22;3431;47.966;10.268;2023-07-09T00:36:37;18.70;99.90
6788;DHT22;3431;47.966;10.268;2023-07-09T00:36:58;18.70;99.90
6788;DHT22;3431;47.966;10.268;2023-07-09T00:37:21;18.70;99.90
6788;DHT22;3431;47.966;10.268;2023-07-09T00:37:48;18.70;99.90
6788;DHT22;3431;47.966;10.268;2023-07-09T00:38:14;18.70;99.90
6788;DHT22;3431;47.966;10.268;2023-07-09T00:38:38;18.70;99.90
6788;DHT22;3431;47.966;10.268;2023-07-09T00:39:02;18.60;99.90
6788;DHT22;3431;47.966;10.268;2023-07-09T00:39:26;18.70;99.90
6788;DHT22;3431;47.966;10.268;2023-07-09T00:39:49;18.60;99.90
6788;DHT22;3431;47.966;10.268;2023-07-09T00:40:22;18.60;99.90
6788;DHT22;3431;47.966;10.268;2023-07-09T00:40:48;18.60;99.90
6788;DHT22;3431;47.966;10.268;2023-07-09T00:41:20;18.10;99.90
6788;DHT22;3431;47.966;10.268;2023-07-09T00:41:42;18.60;99.90
6788;DHT22;3431;47.966;10.268;2023-07-09T00:42:04;18.60;99.90
6788;DHT22;3431;47.966;10.268;2023-07-09T00:42:27;18.60;99.90
6788;DHT22;3431;47.966;10.268;2023-07-09T00:42:50;18.60;99.90
6788;DHT22;3431;47.966;10.268;2023-07-09T00:43:15;18.60;99.90
6788;DHT22;3431;47.966;10.268;2023-07-09T00:43:37;18.60;99.90
6788;DHT22;3431;47.966;10.268;2023-07-09T00:44:23;18.60;99.90
6788;DHT22;3431;47.966;10.268;2023-07-09T00:44:47;18.60;99.90
6788;DHT22;3431;47.966;10.268;2023-07-09T00:45:18;18.60;99.90
6788;DHT22;3431;47.966;10.268;2023-07-09T00:45:40;18.60;99.90
6788;DHT22;3431;47.966;10.268;2023-07-09T00:47:06;18.00;99.90
6788;DHT22;3431;47.966;10.268;2023-07-09T00:47:25;18.60;99.90
6788;DHT22;3431;47.966;10.268;2023-07-09T00:47:52;18.60;99.90
6788;DHT22;3431;47.966;10.268;2023-07-09T00:48:15;18.60;99.90
6788;DHT22;3431;47.966;10.268;2023-07-09T00:48:37;18.50;99.90
6788;DHT22;3431;47.966;10.268;2023-07-09T00:49:01;18.50;99.90
6788;DHT22;3431;47.966;10.268;2023-07-09T00:49:29;18.50;99.90
6788;DHT22;3431;47.966;10.268;2023-07-09T00:50:00;18.50;99.90
6788;DHT22;3431;47.966;10.268;2023-07-09T00:50:33;18.50;99.90
6788;DHT22;3431;47.966;10.268;2023-07-09T00:50:55;18.50;99.90
6788;DHT22;3431;47.966;10.268;2023-07-09T00:51:20;18.50;99.90
6788;DHT22;3431;47.966;10.268;2023-07-09T00:51:45;18.50;99.90
6788;DHT22;3431;47.966;10.268;2023-07-09T00:52:21;18.50;99.90
6788;DHT22;3431;47.966;10.268;2023-07-09T00:52:50;18.50;99.90
6788;DHT22;3431;47.966;10.268;2023-07-09T00:53:17;18.50;99.90
6788;DHT22;3431;47.966;10.268;2023-07-09T00:53:40;18.50;99.90
6788;DHT22;3431;47.966;10.268;2023-07-09T00:54:10;18.50;99.90
6788;DHT22;3431;47.966;10.268;2023-07-09T00:54:37;18.50;99.90
6788;DHT22;3431;47.966;10.268;2023-07-09T00:55:03;18.50;99.90
6788;DHT22;3431;47.966;10.268;2023-07-09T00:55:29;18.50;99.90
6788;DHT22;3431;47.966;10.268;2023-07-09T00:55:56;18.50;99.90
6788;DHT22;3431;47.966;10.268;2023-07-09T00:56:25;18.50;99.90
6788;DHT22;3431;47.966;10.268;2023-07-09T00:56:51;18.50;99.90
6788;DHT22;3431;47.966;10.268;2023-07-09T00:57:18;18.50;99.90
6788;DHT22;3431;47.966;10.268;2023-07-09T00:57:44;18.50;99.90
6788;DHT22;3431;47.966;10.268;2023-07-09T00:58:13;18.50;99.90
6788;DHT22;3431;47.966;10.268;2023-07-09T00:58:39;18.50;99.90
6788;DHT22;3431;47.966;10.268;2023-07-09T00:59:04;18.50;99.90
6788;DHT22;3431;47.966;10.268;2023-07-09T00:59:28;18.50;99.90
6788;DHT22;3431;47.966;10.268;2023-07-09T00:59:53;18.50;99.90
6788;DHT22;3431;47.966;10.268;2023-07-09T01:00:17;18.50;99.90
6788;DHT22;3431;47.966;10.268;2023-07-09T01:00:43;18.50;99.90
6788;DHT22;3431;47.966;10.268;2023-07-09T01:01:09;18.50;99.90
6788;DHT22;3431;47.966;10.268;2023-07-09T01:01:33;18.50;99.90
6788;DHT22;3431;47.966;10.268;2023-07-09T01:01:55;18.50;99.90
6788;DHT22;3431;47.966;10.268;2023-07-09T01:02:17;18.50;99.90
6788;DHT22;3431;47.966;10.268;2023-07-09T01:02:45;18.50;99.90
6788;DHT22;3431;47.966;10.268;2023-07-09T01:03:10;18.50;99.90
6788;DHT22;3431;47.966;10.268;2023-07-09T01:03:35;18.50;99.90
6788;DHT22;3431;47.966;10.268;2023-07-09T01:03:59;18.50;99.90
6788;DHT22;3431;47.966;10.268;2023-07-09T01:04:22;18.50;99.90
6788;DHT22;3431;47.966;10.268;2023-07-09T01:04:45;18.50;99.90
6788;DHT22;3431;47.966;10.268;2023-07-09T01:05:09;18.50;99.90
6788;DHT22;3431;47.966;10.268;2023-07-09T01:05:33;18.50;99.90
6788;DHT22;3431;47.966;10.268;2023-07-09T01:05:56;18.40;99.90
6788;DHT22;3431;47.966;10.268;2023-07-09T01:06:26;18.50;99.90
6788;DHT22;3431;47.966;10.268;2023-07-09T01:06:53;18.40;99.90
6788;DHT22;3431;47.966;10.268;2023-07-09T01:07:16;18.40;99.90
6788;DHT22;3431;47.966;10.268;2023-07-09T01:07:39;18.40;99.90
6788;DHT22;3431;47.966;10.268;2023-07-09T01:08:02;18.40;99.90
6788;DHT22;3431;47.966;10.268;2023-07-09T01:08:24;18.40;99.90
6788;DHT22;3431;47.966;10.268;2023-07-09T01:08:48;18.40;99.90
6788;DHT22;3431;47.966;10.268;2023-07-09T01:09:16;18.40;99.90
6788;DHT22;3431;47.966;10.268;2023-07-09T01:09:38;18.40;99.90
6788;DHT22;3431;47.966;10.268;2023-07-09T01:10:03;18.40;99.90
6788;DHT22;3431;47.966;10.268;2023-07-09T01:10:25;18.40;99.90
6788;DHT22;3431;47.966;10.268;2023-07-09T01:10:46;18.40;99.90
6788;DHT22;3431;47.966;10.268;2023-07-09T01:11:15;18.40;99.90
6788;DHT22;3431;47.966;10.268;2023-07-09T01:11:38;18.40;99.90
6788;DHT22;3431;47.966;10.268;2023-07-09T01:12:01;18.40;99.90
6788;DHT22;3431;47.966;10.268;2023-07-09T01:12:25;18.40;99.90
6788;DHT22;3431;47.966;10.268;2023-07-09T01:12:48;18.40;99.90
6788;DHT22;3431;47.966;10.268;2023-07-09T01:13:11;18.40;99.90
6788;DHT22;3431;47.966;10.268;2023-07-09T01:13:32;18.40;99.90
6788;DHT22;3431;47.966;10.268;2023-07-09T01:13:59;18.40;99.90
6788;DHT22;3431;47.966;10.268;2023-07-09T01:14:24;18.40;99.90
6788;DHT22;3431;47.966;10.268;2023-07-09T01:14:48;18.40;99.90
6788;DHT22;3431;47.966;10.268;2023-07-09T01:15:12;18.40;99.90
6788;DHT22;3431;47.966;10.268;2023-07-09T01:15:36;18.40;99.90
6788;DHT22;3431;47.966;10.268;2023-07-09T01:15:59;18.40;99.90
6788;DHT22;3431;47.966;10.268;2023-07-09T01:16:23;18.40;99.90
6788;DHT22;3431;47.966;10.268;2023-07-09T01:16:49;18.40;99.90
6788;DHT22;3431;47.966;10.268;2023-07-09T01:17:18;18.40;99.90
6788;DHT22;3431;47.966;10.268;2023-07-09T01:17:40;18.30;99.90
6788;DHT22;3431;47.966;10.268;2023-07-09T01:18:05;18.30;99.90
6788;DHT22;3431;47.966;10.268;2023-07-09T01:18:27;18.30;99.90
6788;DHT22;3431;47.966;10.268;2023-07-09T01:18:48;18.30;99.90
6788;DHT22;3431;47.966;10.268;2023-07-09T01:19:10;18.30;99.90
6788;DHT22;3431;47.966;10.268;2023-07-09T01:19:38;18.30;99.90
6788;DHT22;3431;47.966;10.268;2023-07-09T01:20:07;18.20;99.90
6788;DHT22;3431;47.966;10.268;2023-07-09T01:20:31;18.30;99.90
6788;DHT22;3431;47.966;10.268;2023-07-09T01:21:01;18.20;99.90
6788;DHT22;3431;47.966;10.268;2023-07-09T01:21:23;18.20;99.90
6788;DHT22;3431;47.966;10.268;2023-07-09T01:21:44;18.20;99.90
6788;DHT22;3431;47.966;10.268;2023-07-09T01:22:07;18.20;99.90
6788;DHT22;3431;47.966;10.268;2023-07-09T01:22:28;18.20;99.90
6788;DHT22;3431;47.966;10.268;2023-07-09T01:22:51;18.20;99.90
6788;DHT22;3431;47.966;10.268;2023-07-09T01:23:16;18.20;99.90
6788;DHT22;3431;47.966;10.268;2023-07-09T01:23:38;18.20;99.90
6788;DHT22;3431;47.966;10.268;2023-07-09T01:24:11;18.20;99.90
6788;DHT22;3431;47.966;10.268;2023-07-09T01:24:54;18.20;99.90
6788;DHT22;3431;47.966;10.268;2023-07-09T01:25:16;18.20;99.90
6788;DHT22;3431;47.966;10.268;2023-07-09T01:25:42;18.20;99.90
6788;DHT22;3431;47.966;10.268;2023-07-09T01:26:05;18.20;99.90
6788;DHT22;3431;47.966;10.268;2023-07-09T01:26:28;18.20;99.90
6788;DHT22;3431;47.966;10.268;2023-07-09T01:26:50;18.20;99.90
6788;DHT22;3431;47.966;10.268;2023-07-09T01:27:13;18.20;99.90
6788;DHT22;3431;47.966;10.268;2023-07-09T01:27:37;18.20;99.90
6788;DHT22;3431;47.966;10.268;2023-07-09T01:27:59;18.20;99.90
6788;DHT22;3431;47.966;10.268;2023-07-09T01:28:22;18.10;99.90
6788;DHT22;3431;47.966;10.268;2023-07-09T01:28:43;18.10;99.90
6788;DHT22;3431;47.966;10.268;2023-07-09T01:29:06;18.10;99.90
6788;DHT22;3431;47.966;10.268;2023-07-09T01:29:30;18.10;99.90
6788;DHT22;3431;47.966;10.268;2023-07-09T01:29:52;18.10;99.90
6788;DHT22;3431;47.966;10.268;2023-07-09T01:30:17;18.10;99.90
6788;DHT22;3431;47.966;10.268;2023-07-09T01:30:41;18.10;99.90
6788;DHT22;3431;47.966;10.268;2023-07-09T01:31:03;18.10;99.90
6788;DHT22;3431;47.966;10.268;2023-07-09T01:31:25;18.10;99.90
6788;DHT22;3431;47.966;10.268;2023-07-09T01:31:47;18.10;99.90
6788;DHT22;3431;47.966;10.268;2023-07-09T01:32:08;18.10;99.90
6788;DHT22;3431;47.966;10.268;2023-07-09T01:32:31;18.10;99.90
6788;DHT22;3431;47.966;10.268;2023-07-09T01:32:57;18.10;99.90
6788;DHT22;3431;47.966;10.268;2023-07-09T01:33:18;18.10;99.90
6788;DHT22;3431;47.966;10.268;2023-07-09T01:33:40;18.10;99.90
6788;DHT22;3431;47.966;10.268;2023-07-09T01:34:02;18.10;99.90
6788;DHT22;3431;47.966;10.268;2023-07-09T01:34:24;18.10;99.90
6788;DHT22;3431;47.966;10.268;2023-07-09T01:34:47;18.10;99.90
6788;DHT22;3431;47.966;10.268;2023-07-09T01:35:11;18.00;99.90
6788;DHT22;3431;47.966;10.268;2023-07-09T01:35:36;18.10;99.90
6788;DHT22;3431;47.966;10.268;2023-07-09T01:35:59;18.00;99.90
6788;DHT22;3431;47.966;10.268;2023-07-09T01:36:21;18.00;99.90
6788;DHT22;3431;47.966;10.268;2023-07-09T01:36:44;18.00;99.90
6788;DHT22;3431;47.966;10.268;2023-07-09T01:37:06;18.00;99.90
6788;DHT22;3431;47.966;10.268;2023-07-09T01:37:27;18.00;99.90
6788;DHT22;3431;47.966;10.268;2023-07-09T01:37:49;18.00;99.90
6788;DHT22;3431;47.966;10.268;2023-07-09T01:38:11;18.00;99.90
6788;DHT22;3431;47.966;10.268;2023-07-09T01:38:34;18.00;99.90
6788;DHT22;3431;47.966;10.268;2023-07-09T01:38:57;18.00;99.90
6788;DHT22;3431;47.966;10.268;2023-07-09T01:39:19;18.00;99.90
6788;DHT22;3431;47.966;10.268;2023-07-09T01:39:40;18.00;99.90
6788;DHT22;3431;47.966;10.268;2023-07-09T01:40:04;18.00;99.90
6788;DHT22;3431;47.966;10.268;2023-07-09T01:40:28;18.00;99.90
6788;DHT22;3431;47.966;10.268;2023-07-09T01:40:51;18.00;99.90
6788;DHT22;3431;47.966;10.268;2023-07-09T01:41:12;18.00;99.90
6788;DHT22;3431;47.966;10.268;2023-07-09T01:41:35;18.00;99.90
6788;DHT22;3431;47.966;10.268;2023-07-09T01:41:56;18.00;99.90
6788;DHT22;3431;47.966;10.268;2023-07-09T01:42:19;18.00;99.90
6788;DHT22;3431;47.966;10.268;2023-07-09T01:42:42;18.00;99.90
6788;DHT22;3431;47.966;10.268;2023-07-09T01:43:06;18.00;99.90
6788;DHT22;3431;47.966;10.268;2023-07-09T01:43:29;17.90;99.90
6788;DHT22;3431;47.966;10.268;2023-07-09T01:43:50;17.90;99.90
6788;DHT22;3431;47.966;10.268;2023-07-09T01:44:12;17.90;99.90
6788;DHT22;3431;47.966;10.268;2023-07-09T01:44:34;17.90;99.90
6788;DHT22;3431;47.966;10.268;2023-07-09T01:44:56;17.90;99.90
6788;DHT22;3431;47.966;10.268;2023-07-09T01:45:19;17.90;99.90
6788;DHT22;3431;47.966;10.268;2023-07-09T01:45:41;17.90;99.90
6788;DHT22;3431;47.966;10.268;2023-07-09T01:46:02;17.90;99.90
6788;DHT22;3431;47.966;10.268;2023-07-09T01:46:24;17.90;99.90
6788;DHT22;3431;47.966;10.268;2023-07-09T01:46:47;17.90;99.90
6788;DHT22;3431;47.966;10.268;2023-07-09T01:47:08;17.90;99.90
6788;DHT22;3431;47.966;10.268;2023-07-09T01:47:30;17.90;99.90
6788;DHT22;3431;47.966;10.268;2023-07-09T01:47:52;17.90;99.90
6788;DHT22;3431;47.966;10.268;2023-07-09T01:48:15;17.90;99.90
6788;DHT22;3431;47.966;10.268;2023-07-09T01:48:38;17.90;99.90
6788;DHT22;3431;47.966;10.268;2023-07-09T01:49:04;17.90;99.90
6788;DHT22;3431;47.966;10.268;2023-07-09T01:49:28;17.90;99.90
6788;DHT22;3431;47.966;10.268;2023-07-09T01:49:51;17.90;99.90
6788;DHT22;3431;47.966;10.268;2023-07-09T01:50:18;17.90;99.90
6788;DHT22;3431;47.966;10.268;2023-07-09T01:50:41;17.90;99.90
6788;DHT22;3431;47.966;10.268;2023-07-09T01:51:05;17.90;99.90
6788;DHT22;3431;47.966;10.268;2023-07-09T01:51:27;17.90;99.90
6788;DHT22;3431;47.966;10.268;2023-07-09T01:51:49;17.90;99.90
6788;DHT22;3431;47.966;10.268;2023-07-09T01:52:13;17.90;99.90
6788;DHT22;3431;47.966;10.268;2023-07-09T01:52:38;17.90;99.90
6788;DHT22;3431;47.966;10.268;2023-07-09T01:53:02;17.90;99.90
6788;DHT22;3431;47.966;10.268;2023-07-09T01:53:25;17.90;99.90
6788;DHT22;3431;47.966;10.268;2023-07-09T01:53:47;17.80;99.90
6788;DHT22;3431;47.966;10.268;2023-07-09T01:54:10;17.90;99.90
6788;DHT22;3431;47.966;10.268;2023-07-09T01:54:31;17.90;99.90
6788;DHT22;3431;47.966;10.268;2023-07-09T01:54:55;17.90;99.90
6788;DHT22;3431;47.966;10.268;2023-07-09T01:55:16;17.90;99.90
6788;DHT22;3431;47.966;10.268;2023-07-09T01:55:38;17.80;99.90
6788;DHT22;3431;47.966;10.268;2023-07-09T01:56:01;17.90;99.90
6788;DHT22;3431;47.966;10.268;2023-07-09T01:56:23;17.90;99.90
6788;DHT22;3431;47.966;10.268;2023-07-09T01:56:45;17.80;99.90
6788;DHT22;3431;47.966;10.268;2023-07-09T01:57:15;17.90;99.90
6788;DHT22;3431;47.966;10.268;2023-07-09T01:57:38;17.80;99.90
6788;DHT22;3431;47.966;10.268;2023-07-09T01:58:03;17.90;99.90
6788;DHT22;3431;47.966;10.268;2023-07-09T01:58:27;17.80;99.90
6788;DHT22;3431;47.966;10.268;2023-07-09T01:58:53;17.80;99.90
6788;DHT22;3431;47.966;10.268;2023-07-09T01:59:15;17.80;99.90
6788;DHT22;3431;47.966;10.268;2023-07-09T01:59:36;17.80;99.90
6788;DHT22;3431;47.966;10.268;2023-07-09T02:00:04;17.80;99.90
6788;DHT22;3431;47.966;10.268;2023-07-09T02:00:35;17.80;99.90
6788;DHT22;3431;47.966;10.268;2023-07-09T02:00:58;17.80;99.90
6788;DHT22;3431;47.966;10.268;2023-07-09T02:01:21;17.80;99.90
6788;DHT22;3431;47.966;10.268;2023-07-09T02:01:47;17.80;99.90
6788;DHT22;3431;47.966;10.268;2023-07-09T02:02:08;17.80;99.90
6788;DHT22;3431;47.966;10.268;2023-07-09T02:02:30;17.80;99.90
6788;DHT22;3431;47.966;10.268;2023-07-09T02:02:53;17.80;99.90
6788;DHT22;3431;47.966;10.268;2023-07-09T02:03:16;17.80;99.90
6788;DHT22;3431;47.966;10.268;2023-07-09T02:03:38;17.80;99.90
6788;DHT22;3431;47.966;10.268;2023-07-09T02:04:00;17.80;99.90
6788;DHT22;3431;47.966;10.268;2023-07-09T02:04:22;17.70;99.90
6788;DHT22;3431;47.966;10.268;2023-07-09T02:04:43;17.70;99.90
6788;DHT22;3431;47.966;10.268;2023-07-09T02:05:06;17.70;99.90
6788;DHT22;3431;47.966;10.268;2023-07-09T02:05:30;17.70;99.90
6788;DHT22;3431;47.966;10.268;2023-07-09T02:05:52;17.70;99.90
6788;DHT22;3431;47.966;10.268;2023-07-09T02:06:18;17.70;99.90
6788;DHT22;3431;47.966;10.268;2023-07-09T02:06:41;17.70;99.90
6788;DHT22;3431;47.966;10.268;2023-07-09T02:07:02;17.70;99.90
6788;DHT22;3431;47.966;10.268;2023-07-09T02:07:25;17.70;99.90
6788;DHT22;3431;47.966;10.268;2023-07-09T02:07:48;17.70;99.90
6788;DHT22;3431;47.966;10.268;2023-07-09T02:08:09;17.80;99.90
6788;DHT22;3431;47.966;10.268;2023-07-09T02:08:31;17.70;99.90
6788;DHT22;3431;47.966;10.268;2023-07-09T02:08:52;17.80;99.90
6788;DHT22;3431;47.966;10.268;2023-07-09T02:09:14;17.70;99.90
6788;DHT22;3431;47.966;10.268;2023-07-09T02:09:35;17.70;99.90
6788;DHT22;3431;47.966;10.268;2023-07-09T02:09:58;17.70;99.90
6788;DHT22;3431;47.966;10.268;2023-07-09T02:10:20;17.70;99.90
6788;DHT22;3431;47.966;10.268;2023-07-09T02:10:43;17.70;99.90
6788;DHT22;3431;47.966;10.268;2023-07-09T02:11:05;17.70;99.90
6788;DHT22;3431;47.966;10.268;2023-07-09T02:11:27;17.70;99.90
6788;DHT22;3431;47.966;10.268;2023-07-09T02:11:49;17.70;99.90
6788;DHT22;3431;47.966;10.268;2023-07-09T02:12:11;17.70;99.90
6788;DHT22;3431;47.966;10.268;2023-07-09T02:12:33;17.70;99.90
6788;DHT22;3431;47.966;10.268;2023-07-09T02:12:55;17.70;99.90
6788;DHT22;3431;47.966;10.268;2023-07-09T02:13:18;17.70;99.90
6788;DHT22;3431;47.966;10.268;2023-07-09T02:13:39;17.70;99.90
6788;DHT22;3431;47.966;10.268;2023-07-09T02:14:00;17.70;99.90
6788;DHT22;3431;47.966;10.268;2023-07-09T02:14:23;17.70;99.90
6788;DHT22;3431;47.966;10.268;2023-07-09T02:14:46;17.70;99.90
6788;DHT22;3431;47.966;10.268;2023-07-09T02:15:09;17.70;99.90
6788;DHT22;3431;47.966;10.268;2023-07-09T02:15:31;17.70;99.90
6788;DHT22;3431;47.966;10.268;2023-07-09T02:15:53;17.70;99.90
6788;DHT22;3431;47.966;10.268;2023-07-09T02:16:14;17.70;99.90
6788;DHT22;3431;47.966;10.268;2023-07-09T02:16:36;17.70;99.90
6788;DHT22;3431;47.966;10.268;2023-07-09T02:16:57;18.00;99.90
6788;DHT22;3431;47.966;10.268;2023-07-09T02:17:20;17.70;99.90
6788;DHT22;3431;47.966;10.268;2023-07-09T02:17:41;17.70;99.90
6788;DHT22;3431;47.966;10.268;2023-07-09T02:18:04;17.70;99.90
6788;DHT22;3431;47.966;10.268;2023-07-09T02:18:27;17.70;99.90
6788;DHT22;3431;47.966;10.268;2023-07-09T02:18:49;17.70;99.90
6788;DHT22;3431;47.966;10.268;2023-07-09T02:19:11;17.70;99.90
6788;DHT22;3431;47.966;10.268;2023-07-09T02:19:32;17.70;99.90
6788;DHT22;3431;47.966;10.268;2023-07-09T02:19:54;17.70;99.90
6788;DHT22;3431;47.966;10.268;2023-07-09T02:20:17;17.70;99.90
6788;DHT22;3431;47.966;10.268;2023-07-09T02:20:40;17.70;99.90
6788;DHT22;3431;47.966;10.268;2023-07-09T02:21:01;17.70;99.90
6788;DHT22;3431;47.966;10.268;2023-07-09T02:21:24;17.70;99.90
6788;DHT22;3431;47.966;10.268;2023-07-09T02:21:51;17.70;99.90
6788;DHT22;3431;47.966;10.268;2023-07-09T02:22:13;17.70;99.90
6788;DHT22;3431;47.966;10.268;2023-07-09T02:22:36;17.70;99.90
6788;DHT22;3431;47.966;10.268;2023-07-09T02:22:58;17.70;99.90
6788;DHT22;3431;47.966;10.268;2023-07-09T02:23:19;17.70;99.90
6788;DHT22;3431;47.966;10.268;2023-07-09T02:23:41;17.70;99.90
6788;DHT22;3431;47.966;10.268;2023-07-09T02:24:03;17.70;99.90
6788;DHT22;3431;47.966;10.268;2023-07-09T02:24:25;17.70;99.90
6788;DHT22;3431;47.966;10.268;2023-07-09T02:24:48;17.70;99.90
6788;DHT22;3431;47.966;10.268;2023-07-09T02:25:10;17.70;99.90
6788;DHT22;3431;47.966;10.268;2023-07-09T02:25:33;17.70;99.90
6788;DHT22;3431;47.966;10.268;2023-07-09T02:25:54;17.70;99.90
6788;DHT22;3431;47.966;10.268;2023-07-09T02:26:17;17.70;99.90
6788;DHT22;3431;47.966;10.268;2023-07-09T02:26:38;17.70;99.90
6788;DHT22;3431;47.966;10.268;2023-07-09T02:27:02;17.70;99.90
6788;DHT22;3431;47.966;10.268;2023-07-09T02:27:24;17.70;99.90
6788;DHT22;3431;47.966;10.268;2023-07-09T02:27:45;17.70;99.90
6788;DHT22;3431;47.966;10.268;2023-07-09T02:28:08;17.70;99.90
6788;DHT22;3431;47.966;10.268;2023-07-09T02:28:29;17.70;99.90
6788;DHT22;3431;47.966;10.268;2023-07-09T02:28:51;17.70;99.90
6788;DHT22;3431;47.966;10.268;2023-07-09T02:29:12;17.70;99.90
6788;DHT22;3431;47.966;10.268;2023-07-09T02:29:34;17.70;99.90
6788;DHT22;3431;47.966;10.268;2023-07-09T02:29:55;17.70;99.90
6788;DHT22;3431;47.966;10.268;2023-07-09T02:30:17;17.70;99.90
6788;DHT22;3431;47.966;10.268;2023-07-09T02:30:39;17.70;99.90
6788;DHT22;3431;47.966;10.268;2023-07-09T02:31:01;17.70;99.90
6788;DHT22;3431;47.966;10.268;2023-07-09T02:31:23;17.70;99.90
6788;DHT22;3431;47.966;10.268;2023-07-09T02:31:45;17.70;99.90
6788;DHT22;3431;47.966;10.268;2023-07-09T02:32:07;17.70;99.90